createdAt,value
2022-10-19T00:04:38.750Z,77.2
2022-10-19T00:09:38.735Z,77.2
2022-10-19T00:14:38.754Z,77.1
2022-10-19T00:19:38.741Z,77.2
2022-10-19T00:24:38.799Z,77.0
2022-10-19T00:29:38.758Z,76.8
2022-10-19T00:34:38.752Z,76.5
2022-10-19T00:39:38.827Z,76.6
2022-10-19T00:44:38.756Z,76.3
2022-10-19T00:49:38.760Z,76.4
2022-10-19T00:54:38.747Z,76.7
2022-10-19T00:59:38.762Z,77.2
2022-10-19T01:04:38.764Z,77.5
2022-10-19T01:09:38.779Z,77.3
2022-10-19T01:14:38.760Z,77.2
2022-10-19T01:19:38.767Z,77.0
2022-10-19T01:24:40.665Z,76.5
2022-10-19T01:29:38.770Z,75.8
2022-10-19T01:34:38.774Z,75.6
2022-10-19T01:39:38.758Z,75.7
2022-10-19T01:44:38.779Z,76.1
2022-10-19T01:49:38.776Z,76.6
2022-10-19T01:54:38.772Z,77.0
2022-10-19T01:59:38.773Z,77.7
2022-10-19T02:04:38.769Z,77.1
2022-10-19T02:09:38.768Z,76.3
2022-10-19T02:14:38.781Z,76.5
2022-10-19T02:19:38.781Z,77.0
2022-10-19T02:24:38.797Z,77.3
2022-10-19T02:29:38.778Z,77.5
2022-10-19T02:34:38.791Z,78.0
2022-10-19T02:39:38.775Z,78.1
2022-10-19T02:44:38.797Z,78.4
2022-10-19T02:49:38.798Z,78.9
2022-10-19T02:54:38.784Z,79.4
2022-10-19T02:59:38.789Z,79.6
2022-10-19T03:04:38.829Z,79.8
2022-10-19T03:09:38.792Z,80.4
2022-10-19T03:14:38.799Z,80.5
2022-10-19T03:19:38.797Z,80.7
2022-10-19T03:24:38.795Z,81.0
2022-10-19T03:29:38.796Z,80.9
2022-10-19T03:34:38.785Z,81.0
2022-10-19T03:39:38.780Z,81.0
2022-10-19T03:44:38.802Z,80.6
2022-10-19T03:49:40.316Z,80.1
2022-10-19T03:54:38.784Z,79.8
2022-10-19T03:59:38.796Z,79.7
2022-10-19T04:04:38.800Z,79.8
2022-10-19T04:09:38.806Z,79.9
2022-10-19T04:14:52.532Z,79.5
2022-10-19T04:19:38.795Z,78.9
2022-10-19T04:24:38.808Z,78.4
2022-10-19T04:29:38.801Z,78.5
2022-10-19T04:34:40.066Z,78.8
2022-10-19T04:39:38.807Z,79.2
2022-10-19T04:44:38.830Z,79.6
2022-10-19T04:49:38.813Z,80.0
2022-10-19T04:54:38.825Z,80.3
2022-10-19T04:59:38.843Z,80.7
2022-10-19T05:04:41.815Z,81.2
2022-10-19T05:09:38.816Z,81.5
2022-10-19T05:14:41.938Z,81.7
2022-10-19T05:19:38.829Z,82.1
2022-10-19T05:24:38.809Z,82.3
2022-10-19T05:29:38.818Z,82.5
2022-10-19T05:34:38.819Z,82.9
2022-10-19T05:39:38.823Z,82.9
2022-10-19T05:49:38.823Z,82.7
2022-10-19T05:54:38.838Z,82.9
2022-10-19T05:59:38.809Z,83.2
2022-10-19T06:04:38.818Z,83.5
2022-10-19T06:09:38.821Z,83.6
2022-10-19T06:14:38.858Z,83.6
2022-10-19T06:19:38.827Z,83.7
2022-10-19T06:24:38.832Z,83.8
2022-10-19T06:29:38.830Z,84.0
2022-10-19T06:34:38.828Z,84.3
2022-10-19T06:39:38.884Z,84.5
2022-10-19T06:44:38.822Z,84.8
2022-10-19T06:49:38.839Z,85.1
2022-10-19T06:54:38.830Z,85.4
2022-10-19T06:59:38.835Z,85.7
2022-10-19T07:04:38.849Z,85.9
2022-10-19T07:09:38.826Z,85.8
2022-10-19T07:14:38.844Z,85.8
2022-10-19T07:19:38.824Z,85.8
2022-10-19T07:24:38.830Z,85.6
2022-10-19T07:29:38.841Z,85.4
2022-10-19T07:34:38.840Z,85.2
2022-10-19T07:39:38.826Z,85.2
2022-10-19T07:44:38.848Z,85.3
2022-10-19T07:49:38.821Z,85.6
2022-10-19T07:54:38.833Z,85.7
2022-10-19T07:59:38.831Z,85.5
2022-10-19T08:05:01.690Z,85.1
2022-10-19T08:09:52.808Z,84.8
2022-10-19T08:14:38.850Z,83.7
2022-10-19T08:19:38.821Z,83.0
2022-10-19T08:24:38.829Z,81.9
2022-10-19T08:29:38.842Z,80.2
2022-10-19T08:34:38.825Z,79.4
2022-10-19T08:39:38.820Z,78.9
2022-10-19T08:44:38.832Z,78.4
2022-10-19T08:49:38.831Z,77.4
2022-10-19T08:54:38.903Z,76.2
2022-10-19T08:59:38.844Z,74.4
2022-10-19T09:04:38.844Z,73.2
2022-10-19T09:09:38.877Z,72.6
2022-10-19T09:14:38.937Z,72.0
2022-10-19T09:19:38.852Z,72.5
2022-10-19T09:24:38.843Z,73.1
2022-10-19T09:29:38.883Z,73.6
2022-10-19T09:34:38.843Z,73.8
2022-10-19T09:39:39.981Z,73.7
2022-10-19T09:44:38.857Z,73.5
2022-10-19T09:49:38.844Z,72.6
2022-10-19T09:54:38.845Z,71.3
2022-10-19T09:59:38.840Z,71.5
2022-10-19T10:04:38.854Z,71.5
2022-10-19T10:09:38.832Z,70.2
2022-10-19T10:14:38.839Z,69.5
2022-10-19T10:19:38.852Z,69.8
2022-10-19T10:24:38.856Z,70.4
2022-10-19T10:29:38.842Z,69.9
2022-10-19T10:39:38.844Z,69.9
2022-10-19T10:44:38.851Z,70.6
2022-10-19T10:49:38.849Z,70.4
2022-10-19T10:54:38.838Z,70.5
2022-10-19T10:59:41.694Z,70.5
2022-10-19T11:04:38.866Z,70.2
2022-10-19T11:09:38.839Z,69.8
2022-10-19T11:14:38.843Z,69.8
2022-10-19T11:19:38.843Z,69.0
2022-10-19T11:24:38.854Z,69.0
2022-10-19T11:29:38.838Z,69.3
2022-10-19T11:34:38.848Z,69.6
2022-10-19T11:39:38.846Z,69.9
2022-10-19T11:44:38.850Z,68.7
2022-10-19T11:49:38.817Z,68.3
2022-10-19T11:54:38.843Z,68.0
2022-10-19T11:59:38.842Z,68.0
2022-10-19T12:04:38.861Z,67.3
2022-10-19T12:09:38.863Z,66.1
2022-10-19T12:14:38.862Z,66.4
2022-10-19T12:19:38.891Z,66.7
2022-10-19T12:24:38.859Z,67.6
2022-10-19T12:29:38.860Z,68.0
2022-10-19T12:34:38.863Z,68.4
2022-10-19T12:39:38.860Z,69.2
2022-10-19T12:44:38.875Z,69.5
2022-10-19T12:49:38.851Z,69.2
2022-10-19T12:54:38.858Z,68.7
2022-10-19T12:59:38.856Z,69.0
2022-10-19T13:04:38.871Z,69.5
2022-10-19T13:09:38.883Z,69.9
2022-10-19T13:14:38.892Z,71.1
2022-10-19T13:19:38.862Z,71.7
2022-10-19T13:24:38.860Z,69.8
2022-10-19T13:29:39.152Z,68.4
2022-10-19T13:34:38.855Z,68.6
2022-10-19T13:39:38.893Z,69.2
2022-10-19T13:44:38.868Z,67.6
2022-10-19T13:49:38.872Z,67.3
2022-10-19T13:54:38.863Z,68.5
2022-10-19T13:59:38.863Z,69.2
2022-10-19T14:04:38.931Z,69.8
2022-10-19T14:09:38.852Z,70.4
2022-10-19T14:14:38.930Z,70.9
2022-10-19T14:19:38.876Z,70.1
2022-10-19T14:24:38.856Z,70.6
2022-10-19T14:29:38.855Z,71.4
2022-10-19T14:34:38.885Z,71.7
2022-10-19T14:39:38.868Z,72.2
2022-10-19T14:44:38.874Z,73.0
2022-10-19T14:49:38.868Z,73.0
2022-10-19T14:54:38.878Z,73.5
2022-10-19T14:59:38.968Z,73.9
2022-10-19T15:04:38.878Z,74.5
2022-10-19T15:09:48.004Z,75.5
2022-10-19T15:14:38.872Z,76.3
2022-10-19T15:19:38.885Z,75.1
2022-10-19T15:24:38.870Z,74.2
2022-10-19T15:29:38.864Z,74.4
2022-10-19T15:34:38.877Z,75.5
2022-10-19T15:39:41.132Z,76.8
2022-10-19T15:44:38.859Z,77.6
2022-10-19T15:49:38.870Z,77.5
2022-10-19T15:54:38.863Z,77.4
2022-10-19T15:59:38.867Z,77.8
2022-10-19T16:04:38.873Z,78.4
2022-10-19T16:09:38.897Z,79.0
2022-10-19T16:14:38.919Z,79.2
2022-10-19T16:19:38.856Z,79.8
2022-10-19T16:24:38.880Z,80.1
2022-10-19T16:29:38.885Z,80.7
2022-10-19T16:34:38.869Z,80.9
2022-10-19T16:39:38.857Z,81.0
2022-10-19T16:44:38.887Z,80.9
2022-10-19T16:49:38.871Z,80.8
2022-10-19T16:54:38.884Z,80.6
2022-10-19T16:59:38.894Z,80.7
2022-10-19T17:04:38.864Z,80.8
2022-10-19T17:09:42.749Z,81.2
2022-10-19T17:14:38.889Z,81.7
2022-10-19T17:19:38.883Z,82.5
2022-10-19T17:24:38.891Z,82.8
2022-10-19T17:29:38.872Z,83.2
2022-10-19T17:34:38.874Z,83.2
2022-10-19T17:39:38.894Z,83.0
2022-10-19T17:44:38.890Z,83.1
2022-10-19T17:49:38.884Z,83.2
2022-10-19T17:54:48.623Z,83.0
2022-10-19T17:59:52.084Z,83.0
2022-10-19T18:04:38.871Z,83.1
2022-10-19T18:09:38.890Z,83.1
2022-10-19T18:14:38.894Z,83.3
2022-10-19T18:19:38.877Z,83.3
2022-10-19T18:24:38.894Z,83.4
2022-10-19T18:29:38.875Z,83.5
2022-10-19T18:34:38.891Z,83.6
2022-10-19T18:39:38.891Z,83.9
2022-10-19T18:44:38.895Z,84.6
2022-10-19T18:49:38.882Z,84.7
2022-10-19T18:54:38.880Z,84.7
2022-10-19T18:59:38.885Z,85.0
2022-10-19T19:04:38.890Z,85.0
2022-10-19T19:09:38.892Z,85.4
2022-10-19T19:14:38.881Z,85.9
2022-10-19T19:19:38.875Z,86.7
2022-10-19T19:24:38.881Z,87.0
2022-10-19T19:29:38.896Z,87.2
2022-10-19T19:34:38.875Z,87.5
2022-10-19T19:39:38.886Z,87.8
2022-10-19T19:44:38.884Z,87.7
2022-10-19T19:49:38.875Z,87.7
2022-10-19T19:54:38.884Z,87.7
2022-10-19T19:59:38.890Z,87.9
2022-10-19T20:04:38.884Z,88.0
2022-10-19T20:09:38.897Z,88.3
2022-10-19T20:14:38.880Z,88.6
2022-10-19T20:19:38.895Z,88.8
2022-10-19T20:24:38.877Z,88.9
2022-10-19T20:29:38.888Z,89.2
2022-10-19T20:34:38.884Z,89.4
2022-10-19T20:39:38.885Z,90.1
2022-10-19T20:44:38.894Z,90.1
2022-10-19T20:49:38.898Z,90.5
2022-10-19T20:54:38.895Z,90.6
2022-10-19T20:59:38.882Z,90.9
2022-10-19T21:04:38.914Z,91.5
2022-10-19T21:09:38.930Z,91.7
2022-10-19T21:14:38.899Z,91.8
2022-10-19T21:19:38.887Z,92.0
2022-10-19T21:24:38.900Z,92.2
2022-10-19T21:29:38.952Z,92.5
2022-10-19T21:34:38.894Z,92.8
2022-10-19T21:39:38.902Z,93.1
2022-10-19T21:44:38.910Z,93.2
2022-10-19T21:49:38.896Z,93.3
2022-10-19T21:54:38.934Z,93.7
2022-10-19T21:59:38.905Z,94.1
2022-10-19T22:04:38.909Z,94.2
2022-10-19T22:09:38.901Z,94.4
2022-10-19T22:14:38.926Z,94.7
2022-10-19T22:19:38.907Z,94.9
2022-10-19T22:24:38.892Z,95.0
2022-10-19T22:29:38.916Z,95.2
2022-10-19T22:34:38.898Z,95.5
2022-10-19T22:39:38.952Z,95.9
2022-10-19T22:44:38.913Z,96.1
2022-10-19T22:49:38.898Z,96.3
2022-10-19T22:54:38.909Z,96.4
2022-10-19T22:59:38.907Z,96.2
2022-10-19T23:04:38.907Z,96.4
2022-10-19T23:09:38.902Z,96.3
2022-10-19T23:14:38.903Z,96.4
2022-10-19T23:19:38.902Z,96.5
2022-10-19T23:24:38.900Z,96.5
2022-10-19T23:29:38.903Z,96.6
2022-10-19T23:34:40.251Z,96.7
2022-10-19T23:39:38.897Z,96.8
2022-10-19T23:44:38.934Z,97.0
2022-10-19T23:49:38.932Z,97.1
2022-10-19T23:54:38.911Z,97.1
2022-10-19T23:59:38.895Z,97.2
